Terminal Aerodrome Forecast
Issued by NWS

Home | Current Version | Previous Version | Text Only | Print | Product List | Glossary On
Versions: 1 2 3 4 5 6 7 8 9 10 11 12 13 14 15 16 17 18 19 20 21 22
000
FTAK31 PAFA 211127
TAFAOT
TAF
PAOT 211127Z 2112/2212 VRB04KT P6SM OVC070
     FM211900 06010KT P6SM BKN050 OVC100
     FM220800 07008KT P6SM SCT050 BKN100=

USA.gov is the U.S. government's official web portal to all federal, state and local government web resources and services.